Time;durP1;ratioP1;P1;durP2;ratioP2;P2;SDS_P1;SDS_P2;PMS_P1;PMS_P2;Temp;Humidity;BMP_temperature;BMP_pressure;BME280_temperature;BME280_humidity;BME280_pressure;Samples;Min_cycle;Max_cycle;Signal;HPM_P1;HPM_P2
2023/06/05 00:01:43;;;;;;;18.67;8.25;;;;;;;13.51;79.00;102108.50;5093504;28;20118;-48
2023/06/05 00:04:08;;;;;;;15.88;8.52;;;;;;;13.45;79.72;102111.66;5093737;28;20095;-48
2023/06/05 00:06:34;;;;;;;16.35;8.18;;;;;;;13.39;79.57;102111.72;5093632;28;20044;-50
2023/06/05 00:09:00;;;;;;;16.73;8.52;;;;;;;13.30;80.10;102113.44;5092520;28;20085;-48
2023/06/05 00:11:26;;;;;;;18.52;8.43;;;;;;;13.27;79.76;102114.88;5093715;28;20028;-49
2023/06/05 00:13:52;;;;;;;18.33;8.57;;;;;;;13.27;80.20;102114.88;5093761;28;20024;-50
2023/06/05 00:16:18;;;;;;;18.23;8.40;;;;;;;13.22;79.97;102108.53;5093432;28;20533;-49
2023/06/05 00:18:45;;;;;;;16.80;8.05;;;;;;;13.16;80.27;102113.31;5093193;28;20048;-48
2023/06/05 00:21:11;;;;;;;18.25;8.68;;;;;;;13.17;80.41;102106.63;5093613;28;20139;-48
2023/06/05 00:23:36;;;;;;;16.40;8.20;;;;;;;13.08;81.45;102108.38;5093466;28;20099;-50
2023/06/05 00:26:02;;;;;;;19.10;8.10;;;;;;;12.98;81.75;102123.22;5093359;28;20055;-46
2023/06/05 00:28:27;;;;;;;18.42;8.95;;;;;;;12.86;82.61;102114.41;5093364;28;20054;-47
2023/06/05 00:30:52;;;;;;;15.90;8.18;;;;;;;12.87;82.65;102103.00;5093337;28;20024;-48
2023/06/05 00:33:18;;;;;;;17.40;8.32;;;;;;;12.86;82.35;102111.66;5090586;28;20024;-50
2023/06/05 00:35:43;;;;;;;17.52;8.55;;;;;;;12.84;82.85;102106.38;5093285;28;20020;-50
2023/06/05 00:38:08;;;;;;;17.88;8.45;;;;;;;12.86;82.44;102112.47;5093187;28;20059;-47
2023/06/05 00:40:34;;;;;;;18.60;8.50;;;;;;;12.80;82.73;102110.84;5093063;28;20019;-48
2023/06/05 00:42:59;;;;;;;17.13;8.52;;;;;;;12.75;82.89;102116.47;5092947;28;20425;-49
2023/06/05 00:45:24;;;;;;;18.70;8.77;;;;;;;12.72;83.21;102108.72;5091549;28;20032;-48
2023/06/05 00:47:50;;;;;;;16.77;9.02;;;;;;;12.66;84.03;102101.53;5092998;28;20028;-51
2023/06/05 00:50:17;;;;;;;16.58;8.68;;;;;;;12.62;83.80;102104.88;5092897;28;20032;-49
2023/06/05 00:52:43;;;;;;;18.88;8.98;;;;;;;12.61;84.59;102105.19;5092951;28;20028;-49
2023/06/05 00:55:10;;;;;;;18.88;8.50;;;;;;;12.60;84.60;102103.53;5092932;28;20168;-47
2023/06/05 00:57:38;;;;;;;18.58;8.90;;;;;;;12.55;84.93;102104.41;5092800;28;20024;-48
2023/06/05 01:00:07;;;;;;;18.85;8.98;;;;;;;12.51;84.90;102105.25;5092694;28;20039;-46
2023/06/05 01:02:34;;;;;;;19.42;9.10;;;;;;;12.41;85.43;102101.44;5092532;28;20364;-47
2023/06/05 01:05:00;;;;;;;19.40;9.60;;;;;;;12.27;86.39;102103.19;5092726;28;20036;-48
2023/06/05 01:07:27;;;;;;;18.63;9.40;;;;;;;12.22;86.79;102101.28;5092656;28;20224;-46
2023/06/05 01:09:54;;;;;;;18.70;9.45;;;;;;;12.19;86.88;102103.78;5092417;28;20035;-49
2023/06/05 01:12:43;;;;;;;17.83;9.35;;;;;;;12.17;87.17;102106.84;5092134;28;20596;-50
2023/06/05 01:15:09;;;;;;;19.73;9.45;;;;;;;12.08;88.23;102106.63;5092618;28;20047;-49
2023/06/05 01:17:34;;;;;;;17.45;8.88;;;;;;;12.05;87.75;102104.41;5092455;28;20028;-46
2023/06/05 01:20:07;;;;;;;17.23;8.80;;;;;;;12.12;87.04;102101.31;5104417;28;20593;-46
2023/06/05 01:22:34;;;;;;;17.70;9.10;;;;;;;12.16;87.04;102094.09;5112830;28;20069;-50
2023/06/05 01:25:01;;;;;;;17.70;9.10;;;;;;;12.16;86.73;102089.38;5112626;28;20055;-46
2023/06/05 01:27:35;;;;;;;19.45;9.70;;;;;;;12.12;87.26;102093.84;5112769;28;20478;-50
2023/06/05 01:30:07;;;;;;;18.67;9.38;;;;;;;12.01;87.72;102100.56;5112361;28;20027;-49
2023/06/05 01:32:40;;;;;;;19.08;9.40;;;;;;;12.00;87.61;102098.91;5110705;28;20026;-52
2023/06/05 01:35:08;;;;;;;19.98;9.60;;;;;;;11.95;87.83;102096.94;5111465;28;20024;-50
2023/06/05 01:37:36;;;;;;;18.00;9.38;;;;;;;11.85;89.39;102099.78;5112407;28;20514;-49
2023/06/05 01:40:04;;;;;;;20.73;9.75;;;;;;;11.82;89.25;102103.09;5112604;28;20020;-46
2023/06/05 01:42:29;;;;;;;19.42;9.27;;;;;;;11.78;89.64;102096.47;5112573;28;20065;-49
2023/06/05 01:44:55;;;;;;;19.35;9.70;;;;;;;11.69;90.35;102094.28;5112282;28;20027;-50
2023/06/05 01:47:21;;;;;;;17.25;9.57;;;;;;;11.65;90.72;102095.16;5112420;28;20019;-48
2023/06/05 01:49:47;;;;;;;19.58;10.07;;;;;;;11.62;90.57;102088.19;5103810;28;20024;-49
2023/06/05 01:52:12;;;;;;;19.73;9.45;;;;;;;11.65;90.85;102090.41;5091964;28;20027;-46
2023/06/05 01:54:38;;;;;;;19.35;9.57;;;;;;;11.63;91.00;102089.03;5092004;28;20387;-47
2023/06/05 01:57:04;;;;;;;18.75;9.52;;;;;;;11.56;91.17;102086.56;5091940;28;20384;-46
2023/06/05 01:59:29;;;;;;;19.83;9.88;;;;;;;11.51;91.20;102083.84;5092017;28;20035;-46
2023/06/05 02:01:55;;;;;;;18.52;9.82;;;;;;;11.60;91.02;102075.75;5091939;28;20399;-48
2023/06/05 02:04:21;;;;;;;21.85;10.05;;;;;;;11.59;90.75;102076.84;5091875;28;20471;-46
2023/06/05 02:06:48;;;;;;;18.70;9.82;;;;;;;11.62;90.58;102073.53;5091657;28;20031;-48
2023/06/05 02:09:14;;;;;;;19.10;9.95;;;;;;;11.58;91.43;102076.03;5091969;28;20035;-46
2023/06/05 02:11:42;;;;;;;21.25;10.40;;;;;;;11.51;91.60;102072.75;5091653;28;20110;-47
2023/06/05 02:14:08;;;;;;;19.65;10.35;;;;;;;11.43;91.94;102071.38;5092147;28;20024;-50
2023/06/05 02:16:36;;;;;;;19.80;10.70;;;;;;;11.35;92.77;102071.97;5091962;28;20056;-48
2023/06/05 02:19:03;;;;;;;18.75;10.10;;;;;;;11.26;93.39;102070.88;5091489;28;20044;-50
2023/06/05 02:21:30;;;;;;;20.90;10.40;;;;;;;11.20;93.40;102072.81;5091615;28;20322;-49
2023/06/05 02:23:57;;;;;;;20.33;10.38;;;;;;;11.16;93.75;102066.16;5095871;28;20360;-48
2023/06/05 02:26:23;;;;;;;19.75;10.35;;;;;;;11.10;94.02;102070.88;5095824;28;20032;-49
2023/06/05 02:28:48;;;;;;;19.95;10.55;;;;;;;11.05;94.16;102066.19;5095661;28;20042;-50
2023/06/05 02:31:15;;;;;;;21.42;10.05;;;;;;;11.10;94.10;102064.53;5096055;28;20095;-46
2023/06/05 02:33:41;;;;;;;19.85;10.43;;;;;;;11.03;94.50;102067.59;5092283;28;20028;-48
2023/06/05 02:36:06;;;;;;;20.40;10.35;;;;;;;11.01;94.32;102067.88;5095599;28;20032;-48
2023/06/05 02:38:32;;;;;;;20.50;11.00;;;;;;;10.91;95.98;102070.66;5095707;28;20655;-46
2023/06/05 02:40:57;;;;;;;19.25;10.75;;;;;;;10.90;95.56;102064.31;5095440;28;20028;-47
2023/06/05 02:43:23;;;;;;;19.60;10.60;;;;;;;10.88;95.55;102060.13;5095374;28;20047;-49
2023/06/05 02:45:48;;;;;;;19.20;10.77;;;;;;;10.88;95.86;102060.97;5095409;28;20448;-51
2023/06/05 02:48:14;;;;;;;20.77;11.23;;;;;;;10.82;96.81;102055.72;5095429;28;20036;-51
2023/06/05 02:50:39;;;;;;;19.80;11.18;;;;;;;10.73;96.99;102064.56;5095238;28;20024;-47
2023/06/05 02:53:04;;;;;;;19.88;11.20;;;;;;;10.77;96.01;102060.13;5095396;28;20356;-46
2023/06/05 02:55:32;;;;;;;19.40;11.27;;;;;;;10.80;96.00;102057.91;5095250;28;20028;-48
2023/06/05 02:57:57;;;;;;;21.08;11.45;;;;;;;10.82;96.49;102047.41;5095212;28;20031;-47
2023/06/05 03:00:23;;;;;;;20.98;11.10;;;;;;;10.84;95.98;102053.50;5095071;28;20016;-50
2023/06/05 03:02:48;;;;;;;21.27;10.88;;;;;;;10.74;96.22;102057.94;5094976;28;20024;-47
2023/06/05 03:05:27;;;;;;;20.42;11.20;;;;;;;10.70;96.90;102050.47;5094937;28;20050;-46
2023/06/05 03:07:55;;;;;;;20.40;11.20;;;;;;;10.72;96.33;102054.63;5093679;28;20388;-47
2023/06/05 03:10:21;;;;;;;21.25;11.27;;;;;;;10.69;97.17;102062.63;5094687;28;20468;-51
2023/06/05 03:12:47;;;;;;;21.23;11.93;;;;;;;10.59;97.93;102060.69;5094862;28;20060;-50
2023/06/05 03:15:14;;;;;;;21.45;11.68;;;;;;;10.57;97.75;102058.22;5094917;28;20055;-51
2023/06/05 03:17:40;;;;;;;21.63;11.60;;;;;;;10.58;97.75;102053.53;5094521;28;20046;-52
2023/06/05 03:20:09;;;;;;;21.85;11.68;;;;;;;10.57;98.09;102054.63;5095052;28;20047;-51
2023/06/05 03:22:35;;;;;;;21.67;11.45;;;;;;;10.52;97.86;102052.69;5094308;28;20048;-49
2023/06/05 03:25:00;;;;;;;20.77;12.20;;;;;;;10.41;98.95;102051.81;5094371;28;20110;-46
2023/06/05 03:27:26;;;;;;;22.55;11.90;;;;;;;10.41;98.97;102051.81;5094449;28;20036;-50
2023/06/05 03:29:51;;;;;;;22.30;12.07;;;;;;;10.41;98.47;102045.47;5094569;28;20739;-48
2023/06/05 03:32:16;;;;;;;20.58;11.80;;;;;;;10.36;99.65;102049.03;5114171;28;20032;-48
2023/06/05 03:34:43;;;;;;;20.50;11.98;;;;;;;10.34;99.71;102042.13;5113099;28;20023;-49
2023/06/05 03:37:08;;;;;;;20.77;12.02;;;;;;;10.35;100.00;102036.31;5114751;28;20037;-50
2023/06/05 03:39:34;;;;;;;20.73;11.65;;;;;;;10.36;99.86;102029.69;5114405;28;20103;-50
2023/06/05 03:42:00;;;;;;;22.08;11.85;;;;;;;10.33;99.47;102040.47;5114503;28;20028;-48
2023/06/05 03:44:25;;;;;;;22.45;11.93;;;;;;;10.23;100.00;102039.34;5114502;28;20106;-49
2023/06/05 03:46:50;;;;;;;21.45;11.88;;;;;;;10.24;100.00;102038.25;5104887;28;20032;-49
2023/06/05 03:49:16;;;;;;;21.88;11.50;;;;;;;10.34;100.00;102042.94;5094205;28;20078;-49
2023/06/05 03:51:44;;;;;;;23.33;11.82;;;;;;;10.43;99.98;102037.75;5093955;28;20712;-50
2023/06/05 03:54:10;;;;;;;21.33;11.60;;;;;;;10.54;98.95;102038.56;5093821;28;20024;-50
2023/06/05 03:56:38;;;;;;;21.48;11.98;;;;;;;10.66;98.93;102041.91;5093715;28;20032;-47
2023/06/05 03:59:09;;;;;;;21.13;12.27;;;;;;;10.69;98.21;102044.09;5093802;28;20491;-48
2023/06/05 04:01:37;;;;;;;22.05;12.00;;;;;;;10.64;97.69;102038.56;5109981;28;20059;-47
2023/06/05 04:04:05;;;;;;;21.02;11.95;;;;;;;10.60;98.77;102034.69;5114287;27;20360;-49
2023/06/05 04:06:34;;;;;;;21.42;11.38;;;;;;;10.59;98.93;102042.16;5113910;28;20023;-51
2023/06/05 04:09:00;;;;;;;22.77;12.18;;;;;;;10.58;98.50;102040.50;5114027;28;20127;-46
2023/06/05 04:11:28;;;;;;;22.55;12.20;;;;;;;10.55;98.74;102038.28;5113702;28;20515;-51
2023/06/05 04:13:54;;;;;;;23.85;12.38;;;;;;;10.49;99.20;102030.25;5114023;28;20490;-48
2023/06/05 04:16:19;;;;;;;22.05;12.52;;;;;;;10.55;98.68;102032.75;5113749;28;20036;-48
2023/06/05 04:18:45;;;;;;;21.50;12.38;;;;;;;10.46;99.98;102031.63;5113731;28;20051;-50
2023/06/05 04:21:10;;;;;;;22.17;12.93;;;;;;;10.37;100.00;102033.25;5113390;28;20024;-52
2023/06/05 04:23:36;;;;;;;22.52;12.57;;;;;;;10.35;100.00;102035.47;5113814;28;20027;-49
2023/06/05 04:26:02;;;;;;;24.25;13.27;;;;;;;10.31;100.00;102046.25;5113497;28;20399;-51
2023/06/05 04:28:29;;;;;;;22.70;12.88;;;;;;;10.38;100.00;102043.25;5113622;28;20038;-51
2023/06/05 04:30:55;;;;;;;22.25;12.38;;;;;;;10.44;100.00;102044.91;5113625;28;20024;-50
2023/06/05 04:33:21;;;;;;;22.88;13.05;;;;;;;10.44;100.00;102043.00;5109818;28;20159;-49
2023/06/05 04:35:46;;;;;;;22.45;13.48;;;;;;;10.47;100.00;102049.91;5113342;28;20023;-46
2023/06/05 04:38:12;;;;;;;22.77;13.07;;;;;;;10.41;100.00;102059.31;5113536;28;20024;-48
2023/06/05 04:40:37;;;;;;;22.52;13.18;;;;;;;10.45;100.00;102057.63;5107052;28;20035;-47
2023/06/05 04:43:03;;;;;;;21.75;12.25;;;;;;;10.57;100.00;102057.41;5092919;28;20023;-48
2023/06/05 04:45:28;;;;;;;24.20;12.60;;;;;;;10.64;99.62;102049.63;5092752;28;20091;-47
2023/06/05 04:47:53;;;;;;;22.45;12.48;;;;;;;10.68;100.00;102064.56;5092920;28;20032;-48
2023/06/05 04:50:24;;;;;;;22.88;12.50;;;;;;;10.72;99.69;102062.91;5095742;28;20020;-51
2023/06/05 04:52:50;;;;;;;24.63;13.27;;;;;;;10.67;99.42;102051.84;5113152;28;20024;-51
2023/06/05 04:55:16;;;;;;;23.17;12.80;;;;;;;10.77;100.00;102057.34;5113073;28;20127;-48
2023/06/05 04:57:41;;;;;;;22.70;13.15;;;;;;;10.84;99.45;102057.09;5112795;28;20444;-48
2023/06/05 05:00:07;;;;;;;22.85;13.13;;;;;;;10.86;99.51;102065.94;5112125;28;20063;-53
2023/06/05 05:02:33;;;;;;;23.30;13.93;;;;;;;10.84;99.07;102067.34;5092190;28;20028;-48
2023/06/05 05:04:58;;;;;;;24.02;13.45;;;;;;;10.90;99.22;102067.06;5092571;28;20140;-46
2023/06/05 05:07:26;;;;;;;23.25;13.65;;;;;;;10.95;98.64;102065.38;5092406;28;20032;-47
2023/06/05 05:09:51;;;;;;;23.85;13.52;;;;;;;11.07;98.25;102066.75;5092519;28;20028;-47
2023/06/05 05:12:17;;;;;;;23.73;12.98;;;;;;;11.23;98.04;102069.50;5092749;28;20062;-50
2023/06/05 05:14:44;;;;;;;23.63;13.35;;;;;;;11.26;97.08;102071.69;5092703;28;20108;-47
2023/06/05 05:17:09;;;;;;;24.63;13.95;;;;;;;11.32;97.22;102064.19;5092869;28;20028;-48
2023/06/05 05:19:35;;;;;;;24.45;14.27;;;;;;;11.44;96.74;102069.41;5091199;28;20062;-48
2023/06/05 05:22:00;;;;;;;24.45;13.82;;;;;;;11.51;96.36;102065.25;5092245;28;20036;-49
2023/06/05 05:24:25;;;;;;;24.13;13.40;;;;;;;11.46;96.31;102061.66;5092576;28;20071;-48
2023/06/05 05:26:52;;;;;;;22.60;13.70;;;;;;;11.47;96.53;102066.09;5092559;28;20103;-50
2023/06/05 05:29:17;;;;;;;24.17;13.75;;;;;;;11.49;95.57;102066.66;5092698;28;20487;-47
2023/06/05 05:31:43;;;;;;;24.00;13.13;;;;;;;11.45;95.98;102065.53;5092528;28;20032;-47
2023/06/05 05:34:09;;;;;;;22.30;13.20;;;;;;;11.50;96.12;102055.28;5089421;28;20035;-47
2023/06/05 05:36:36;;;;;;;23.48;13.70;;;;;;;11.53;95.77;102064.97;5093107;28;20491;-47
2023/06/05 05:39:02;;;;;;;24.88;14.25;;;;;;;11.60;96.36;102068.28;5092357;28;20055;-47
2023/06/05 05:41:28;;;;;;;24.13;14.30;;;;;;;11.71;95.57;102053.25;5092314;28;20028;-49
2023/06/05 05:43:53;;;;;;;25.55;13.68;;;;;;;11.80;94.55;102058.22;5092491;28;20391;-48
2023/06/05 05:46:18;;;;;;;23.05;13.70;;;;;;;11.84;93.95;102054.59;5092297;28;20032;-47
2023/06/05 05:48:44;;;;;;;23.77;13.65;;;;;;;11.90;93.60;102063.72;5092262;28;20032;-47
2023/06/05 05:51:09;;;;;;;25.92;14.27;;;;;;;12.00;92.92;102063.66;5092127;28;20031;-49
2023/06/05 05:53:35;;;;;;;24.67;13.80;;;;;;;12.03;92.64;102070.59;5092250;28;20067;-48
2023/06/05 05:56:01;;;;;;;25.00;13.85;;;;;;;12.00;92.22;102063.66;5091857;28;20048;-51
2023/06/05 05:58:26;;;;;;;23.83;13.85;;;;;;;12.11;91.42;102069.16;5091451;28;20085;-48
2023/06/05 06:00:52;;;;;;;23.90;14.70;;;;;;;12.21;91.39;102068.28;5095177;28;20115;-48
2023/06/05 06:03:18;;;;;;;23.85;13.73;;;;;;;12.35;89.98;102069.28;5112228;28;20042;-46
2023/06/05 06:05:44;;;;;;;23.60;13.73;;;;;;;12.40;89.74;102072.03;5111981;28;20030;-50
2023/06/05 06:08:10;;;;;;;24.10;13.63;;;;;;;12.47;89.28;102071.69;5112039;28;20381;-49
2023/06/05 06:10:36;;;;;;;23.50;13.52;;;;;;;12.59;88.88;102065.78;5111758;28;20031;-49
2023/06/05 06:13:02;;;;;;;23.25;14.05;;;;;;;12.65;87.83;102084.03;5112089;28;20043;-49
2023/06/05 06:15:27;;;;;;;23.05;13.40;;;;;;;12.69;87.84;102085.13;5112155;28;20428;-52
2023/06/05 06:17:53;;;;;;;23.02;13.52;;;;;;;12.70;87.72;102078.47;5111607;28;20028;-50
2023/06/05 06:20:18;;;;;;;24.13;14.15;;;;;;;12.66;87.40;102087.66;5111937;28;20436;-51
2023/06/05 06:22:44;;;;;;;22.55;13.50;;;;;;;12.68;86.98;102089.03;5111747;28;20027;-49
2023/06/05 06:25:14;;;;;;;24.08;13.07;;;;;;;12.71;86.50;102090.38;5111980;28;20370;-52
2023/06/05 06:27:40;;;;;;;22.75;12.98;;;;;;;12.80;86.40;102080.31;5110717;28;20032;-54
2023/06/05 06:30:05;;;;;;;24.10;13.88;;;;;;;12.82;85.95;102085.56;5109398;28;20038;-49
2023/06/05 06:32:31;;;;;;;21.58;12.48;;;;;;;12.91;85.34;102081.03;5111488;28;20120;-51
2023/06/05 06:34:56;;;;;;;22.30;13.10;;;;;;;13.02;85.10;102082.59;5111840;28;20070;-52
2023/06/05 06:37:22;;;;;;;22.60;12.63;;;;;;;13.12;83.95;102081.69;5111335;28;20756;-51
2023/06/05 06:39:48;;;;;;;23.27;13.07;;;;;;;13.12;82.96;102084.47;5111794;28;20035;-51
2023/06/05 06:42:14;;;;;;;22.48;12.90;;;;;;;13.29;83.04;102083.19;5110947;28;20360;-52
2023/06/05 06:44:39;;;;;;;23.80;13.00;;;;;;;13.43;82.29;102075.81;5111585;28;20040;-49
2023/06/05 06:47:05;;;;;;;22.20;13.00;;;;;;;13.54;81.83;102080.13;5110557;28;20031;-50
2023/06/05 06:49:31;;;;;;;21.65;13.40;;;;;;;13.56;81.34;102080.69;5109106;28;20019;-51
2023/06/05 06:51:56;;;;;;;23.10;13.23;;;;;;;13.63;80.64;102090.59;5109084;28;20561;-49
2023/06/05 06:54:22;;;;;;;22.95;12.73;;;;;;;13.64;79.75;102093.09;5109310;28;20471;-50
2023/06/05 06:56:48;;;;;;;21.48;12.85;;;;;;;13.72;78.66;102097.16;5109133;28;20031;-51
2023/06/05 06:59:14;;;;;;;22.30;12.15;;;;;;;13.67;79.90;102097.22;5109819;28;20032;-51
2023/06/05 07:01:45;;;;;;;23.30;13.00;;;;;;;13.73;79.42;102098.81;5109976;28;20099;-51
2023/06/05 07:04:12;;;;;;;21.70;12.82;;;;;;;13.78;78.63;102103.50;5110958;28;20027;-50
2023/06/05 07:06:38;;;;;;;22.63;12.18;;;;;;;13.77;78.53;102105.47;5111156;28;20072;-50
2023/06/05 07:09:03;;;;;;;22.25;11.98;;;;;;;13.80;78.16;102099.28;5112010;28;20110;-49
2023/06/05 07:11:29;;;;;;;22.00;12.18;;;;;;;13.94;77.98;102098.56;5115159;28;20839;-49
2023/06/05 07:13:54;;;;;;;20.67;11.98;;;;;;;14.03;78.25;102103.16;5115173;28;20198;-51
2023/06/05 07:16:20;;;;;;;23.83;12.63;;;;;;;14.11;77.37;102101.66;5114877;28;20027;-50
2023/06/05 07:18:45;;;;;;;22.67;12.38;;;;;;;14.22;76.86;102107.09;5115265;28;20496;-50
2023/06/05 07:21:10;;;;;;;22.92;12.40;;;;;;;14.27;76.07;102098.66;5114566;28;20030;-51
2023/06/05 07:23:36;;;;;;;21.08;12.20;;;;;;;14.34;76.16;102108.28;5114810;27;20037;-49
2023/06/05 07:26:01;;;;;;;22.15;12.80;;;;;;;14.39;76.48;102114.91;5114577;28;20023;-48
2023/06/05 07:28:27;;;;;;;21.30;11.88;;;;;;;14.44;75.37;102110.09;5114721;28;20016;-51
2023/06/05 07:30:52;;;;;;;19.92;11.75;;;;;;;14.51;75.09;102104.13;5114693;28;20031;-49
2023/06/05 07:33:18;;;;;;;20.98;12.32;;;;;;;14.50;74.62;102108.88;5114338;27;20032;-51
2023/06/05 07:35:45;;;;;;;19.73;11.60;;;;;;;14.62;74.49;102102.84;5114439;28;20055;-51
2023/06/05 07:38:10;;;;;;;22.65;12.50;;;;;;;14.67;74.55;102115.91;5096646;28;20051;-49
2023/06/05 07:40:36;;;;;;;22.80;12.85;;;;;;;14.75;74.88;102101.28;5079211;28;20047;-51
2023/06/05 07:43:01;;;;;;;23.05;12.05;;;;;;;14.82;74.41;102098.94;5089154;28;20039;-50
2023/06/05 07:45:26;;;;;;;20.67;11.95;;;;;;;14.94;73.87;102104.03;5093089;28;20032;-52
2023/06/05 07:47:52;;;;;;;21.58;12.27;;;;;;;15.08;74.54;102112.44;5091685;28;20028;-53
2023/06/05 07:50:17;;;;;;;22.05;12.32;;;;;;;15.23;73.46;102102.13;5092968;28;20028;-49
2023/06/05 07:52:42;;;;;;;20.65;12.65;;;;;;;15.38;72.48;102104.63;5105805;28;20588;-51
2023/06/05 07:55:08;;;;;;;21.73;11.75;;;;;;;15.41;71.68;102109.56;5113220;28;20035;-51
2023/06/05 07:57:34;;;;;;;21.95;13.02;;;;;;;15.46;71.39;102103.06;5088559;28;20044;-49
2023/06/05 07:59:59;;;;;;;20.55;11.57;;;;;;;15.62;71.91;102103.59;5072385;28;20017;-52
2023/06/05 08:02:24;;;;;;;22.75;12.18;;;;;;;15.67;70.82;102097.94;5082138;28;20028;-50
2023/06/05 08:04:50;;;;;;;21.15;12.43;;;;;;;15.69;71.32;102101.22;5092570;28;20025;-49
2023/06/05 08:07:15;;;;;;;20.33;12.23;;;;;;;15.72;71.12;102105.38;5100398;28;20034;-51
2023/06/05 08:09:41;;;;;;;22.02;12.35;;;;;;;15.74;70.63;102103.06;5112717;28;20467;-48
2023/06/05 08:12:07;;;;;;;21.40;12.38;;;;;;;15.72;70.14;102108.16;5112439;28;20035;-51
2023/06/05 08:14:34;;;;;;;21.10;12.18;;;;;;;15.72;70.05;102097.81;5112574;28;20020;-49
2023/06/05 08:17:00;;;;;;;21.60;11.95;;;;;;;15.85;70.00;102095.38;5112294;28;20036;-53
2023/06/05 08:19:25;;;;;;;22.77;12.27;;;;;;;15.87;69.84;102091.13;5111814;28;20471;-51
2023/06/05 08:21:52;;;;;;;21.98;12.00;;;;;;;15.81;69.51;102088.72;5112179;28;20049;-51
2023/06/05 08:24:17;;;;;;;21.77;12.02;;;;;;;16.06;70.10;102085.38;5112393;28;20471;-50
2023/06/05 08:26:43;;;;;;;22.23;12.43;;;;;;;16.26;69.13;102088.84;5112249;28;20024;-50
2023/06/05 08:29:08;;;;;;;20.63;12.45;;;;;;;16.32;68.78;102081.19;5112476;28;20027;-50
2023/06/05 08:31:36;;;;;;;23.42;12.85;;;;;;;16.39;68.62;102087.16;5112334;28;20041;-52
2023/06/05 08:34:01;;;;;;;22.08;11.95;;;;;;;16.43;67.47;102085.38;5112457;28;20038;-49
2023/06/05 08:36:26;;;;;;;22.75;12.65;;;;;;;16.55;66.83;102075.63;5112281;28;20019;-51
2023/06/05 08:38:52;;;;;;;22.60;12.07;;;;;;;16.60;67.41;102073.53;5111864;28;20083;-50
2023/06/05 08:41:18;;;;;;;22.85;12.93;;;;;;;16.71;67.41;102076.88;5111936;28;20031;-49
2023/06/05 08:43:46;;;;;;;20.20;11.57;;;;;;;16.91;67.11;102077.50;5111912;28;20039;-51
2023/06/05 08:46:12;;;;;;;20.70;12.07;;;;;;;16.78;65.89;102065.25;5112066;28;20031;-48
2023/06/05 08:48:43;;;;;;;22.17;12.15;;;;;;;16.90;65.52;102065.50;5110606;28;20076;-51
2023/06/05 08:51:11;;;;;;;21.38;12.07;;;;;;;17.13;66.18;102063.53;5111838;28;20479;-50
2023/06/05 08:53:38;;;;;;;20.70;12.02;;;;;;;17.20;65.67;102065.03;5111795;28;20036;-51
2023/06/05 08:56:05;;;;;;;21.67;11.88;;;;;;;17.32;63.55;102068.06;5101036;27;20380;-51
2023/06/05 08:58:31;;;;;;;21.63;11.93;;;;;;;17.39;62.57;102070.34;5086230;28;20461;-51
2023/06/05 09:00:57;;;;;;;20.70;11.40;;;;;;;17.46;63.12;102062.34;5079035;28;20100;-52
2023/06/05 09:03:22;;;;;;;21.33;11.40;;;;;;;17.52;63.15;102068.63;5084889;28;20023;-47
2023/06/05 09:05:48;;;;;;;21.33;11.45;;;;;;;17.53;62.88;102073.88;5084770;28;20058;-49
2023/06/05 09:08:15;;;;;;;22.85;11.95;;;;;;;17.67;63.20;102070.97;5082230;28;20032;-50
2023/06/05 09:10:40;;;;;;;20.60;12.02;;;;;;;17.55;63.32;102068.78;5080046;28;20039;-50
2023/06/05 09:13:06;;;;;;;22.02;11.82;;;;;;;17.68;63.71;102064.22;5084337;28;20036;-50
2023/06/05 09:15:33;;;;;;;22.30;12.00;;;;;;;17.89;62.22;102069.22;5086372;28;20445;-50
2023/06/05 09:18:10;;;;;;;22.25;12.80;;;;;;;18.03;61.58;102067.09;5084878;28;20088;-51
2023/06/05 09:20:38;;;;;;;20.85;11.70;;;;;;;18.04;61.45;102063.16;5089785;28;20766;-53
2023/06/05 09:23:20;;;;;;;21.13;12.02;;;;;;;17.94;62.30;102060.63;5086093;28;20502;-52
2023/06/05 09:25:48;;;;;;;20.52;12.32;;;;;;;18.02;61.45;102061.84;5098741;28;20039;-50
2023/06/05 09:28:14;;;;;;;21.05;12.30;;;;;;;18.02;61.63;102062.66;5081704;28;20082;-51
2023/06/05 09:31:02;;;;;;;20.95;11.93;;;;;;;18.21;62.17;102065.16;5085373;28;20040;-52
2023/06/05 09:33:33;;;;;;;20.90;11.20;;;;;;;18.40;61.56;102059.19;5082568;28;20016;-52
2023/06/05 09:36:03;;;;;;;21.05;12.10;;;;;;;18.51;60.40;102059.72;5091035;28;20095;-51
2023/06/05 09:38:29;;;;;;;23.00;11.45;;;;;;;18.64;60.43;102041.06;5100082;28;20067;-49
2023/06/05 09:41:08;;;;;;;22.58;11.85;;;;;;;18.67;58.71;102048.78;5100380;28;20027;-51
2023/06/05 09:43:35;;;;;;;20.20;11.60;;;;;;;18.64;59.31;102040.22;5092882;28;20024;-49
2023/06/05 09:46:09;;;;;;;20.35;11.35;;;;;;;18.82;59.46;102047.44;5101952;28;20050;-51
2023/06/05 09:48:36;;;;;;;21.25;11.80;;;;;;;19.08;58.04;102040.13;5108540;28;20032;-52
2023/06/05 09:51:13;;;;;;;20.95;11.63;;;;;;;19.14;58.55;102042.44;5092313;28;20032;-50
2023/06/05 09:53:45;;;;;;;20.45;11.63;;;;;;;19.21;58.02;102044.72;5105485;28;20055;-51
2023/06/05 09:56:18;;;;;;;19.38;10.80;;;;;;;19.18;57.32;102039.75;5094677;28;20047;-52
2023/06/05 09:58:46;;;;;;;19.35;10.60;;;;;;;19.28;57.18;102052.59;5085891;28;20036;-52
2023/06/05 10:01:16;;;;;;;20.38;10.50;;;;;;;19.46;57.88;102031.69;5086451;28;20020;-52
2023/06/05 10:03:47;;;;;;;22.15;11.27;;;;;;;19.51;57.66;102035.47;5079975;28;20365;-50
2023/06/05 10:06:13;;;;;;;20.40;11.30;;;;;;;19.54;56.51;102034.81;5092228;28;20063;-50
2023/06/05 10:08:39;;;;;;;19.90;10.80;;;;;;;19.54;56.29;102037.63;5111099;28;20032;-52
2023/06/05 10:11:05;;;;;;;20.95;10.43;;;;;;;19.78;56.85;102034.97;5095758;28;20024;-52
2023/06/05 10:13:32;;;;;;;20.90;10.82;;;;;;;19.90;56.09;102030.66;5103248;28;20032;-53
2023/06/05 10:15:59;;;;;;;20.23;10.85;;;;;;;20.04;55.17;102033.19;5096833;28;20163;-51
2023/06/05 10:18:24;;;;;;;18.90;10.07;;;;;;;19.97;55.13;102027.28;5100358;28;20044;-51
2023/06/05 10:20:49;;;;;;;19.88;10.63;;;;;;;20.06;55.77;102028.03;5082665;28;20411;-53
2023/06/05 10:23:17;;;;;;;21.23;10.75;;;;;;;20.17;54.70;102028.44;5089077;28;20865;-52
2023/06/05 10:25:44;;;;;;;20.60;11.63;;;;;;;20.44;55.31;102020.59;5090214;28;20040;-49
2023/06/05 10:28:19;;;;;;;20.33;11.15;;;;;;;20.46;55.81;102029.50;5107233;28;20107;-52
2023/06/05 10:31:03;;;;;;;20.60;10.45;;;;;;;20.53;54.08;102026.94;5084376;28;20036;-50
2023/06/05 10:34:11;;;;;;;20.48;11.63;;;;;;;20.34;54.45;102031.09;5105039;28;20044;-50
2023/06/05 10:37:21;;;;;;;19.55;10.20;;;;;;;20.55;54.63;102019.00;5085210;28;20134;-50
2023/06/05 10:39:49;;;;;;;20.33;10.43;;;;;;;20.64;52.75;102024.53;5090394;28;20345;-52
2023/06/05 10:42:28;;;;;;;19.55;11.13;;;;;;;20.68;53.75;102029.13;5104198;28;20030;-53
2023/06/05 10:44:53;;;;;;;18.55;10.40;;;;;;;20.60;53.27;102020.78;5090849;28;20031;-51
2023/06/05 10:47:34;;;;;;;20.15;10.38;;;;;;;20.79;53.73;102011.81;5110029;28;20027;-51
2023/06/05 10:50:19;;;;;;;20.38;10.70;;;;;;;20.95;53.66;102014.78;5096136;28;20047;-53
2023/06/05 10:52:45;;;;;;;20.15;10.55;;;;;;;21.04;52.76;102010.69;5095157;28;20055;-50
2023/06/05 10:55:12;;;;;;;22.05;10.98;;;;;;;21.08;51.92;102015.59;5096760;28;20023;-53
2023/06/05 10:57:55;;;;;;;19.67;11.02;;;;;;;21.09;51.73;102015.28;5099143;28;20027;-51
2023/06/05 11:00:22;;;;;;;18.80;10.18;;;;;;;21.29;51.54;102012.72;5086561;28;20020;-54
2023/06/05 11:02:48;;;;;;;20.02;9.95;;;;;;;21.66;51.47;102009.91;5085560;28;20081;-52
2023/06/05 11:05:14;;;;;;;21.52;10.00;;;;;;;21.83;50.03;102003.16;5094489;28;20440;-53
2023/06/05 11:07:40;;;;;;;18.95;10.45;;;;;;;22.03;50.35;102008.97;5092082;28;20032;-50
2023/06/05 11:10:15;;;;;;;21.15;10.68;;;;;;;22.11;49.39;101996.72;5089133;28;20028;-51